M I D A S
Marine Information and Data Acquisition System
Tripno 1712 of the Zeeleeuw from 2009-06-18 03:42:29 to 2009-06-18 13:24:37
Back to CruiseResearch ActivitiesStationsMapUnderway DataData graphs

EquipmentUnitsComment
TimeDGPSUTC
LatitudeDGPSDM.mWGS84
LongitudeDGPSDM.mWGS84
TemperatureSBE03/SBE38deg celciusITS90
ConductivitySBE21S/mITS90
SalinitySBE21 Practical Salinity Units
ChlorophylAChelsea fluorimeterg/lCalibrated in Aceton
Missing or incorrect values are displayed as -999
Sea surface data collected by the RV Zeeleeuw from 2009-06-18 03:35:18 to 2009-06-18 13:55:10
Time Latitude Longitude Temperature Conductivity Salinity ChlorophylA
2009-06-18 03:36:27 51°13.678 2°55.895 21.578 0.264525 1.567859 2.795254
2009-06-18 03:37:27 51°13.694 2°55.812 21.5735 0.264422 1.567419 2.795254
2009-06-18 03:38:26 51°13.703 2°55.776 21.5818 0.264319 1.566979 2.795254
2009-06-18 03:39:25 51°13.7 2°55.76 21.5996 0.264216 1.566509 2.795254
2009-06-18 03:40:25 51°13.7 2°55.763 21.5919 0.264113 1.566127 2.795254
2009-06-18 03:41:26 51°13.717 2°55.754 21.6403 0.26401 1.565833 2.795254
2009-06-18 03:42:24 51°13.8 2°55.662 21.5201 0.263907 1.565334 2.795254
2009-06-18 03:43:23 51°13.924 2°55.56 21.6003 0.263701 1.564423 2.795254
2009-06-18 03:44:23 51°14.06 2°55.457 21.5969 0.263701 1.564744 2.795254
2009-06-18 03:45:23 51°14.195 2°55.34 21.6123 0.263598 1.564274 2.795254
2009-06-18 03:46:23 51°14.315 2°55.161 21.6156 0.263495 1.563862 2.795254
2009-06-18 03:47:23 51°14.432 2°54.942 21.5923 0.263392 1.56345 2.795254
2009-06-18 03:48:23 51°14.533 2°54.694 21.538 0.263289 1.562864 2.795254
2009-06-18 03:49:23 51°14.589 2°54.405 21.5161 0.263289 1.56298 2.795254
2009-06-18 03:50:23 51°14.616 2°54.099 21.5233 0.263186 1.562568 2.795254
2009-06-18 03:51:23 51°14.653 2°53.799 21.5423 0.263083 1.562098 2.795254
2009-06-18 03:52:23 51°14.691 2°53.502 21.5287 0.263083 1.562156 2.795254
2009-06-18 03:53:23 51°14.733 2°53.205 21.5379 0.26298 1.56154 2.795254
2009-06-18 03:54:23 51°14.773 2°52.909 21.511 0.26298 1.561569 2.76043
2009-06-18 03:55:23 51°14.814 2°52.614 21.5137 0.26298 1.561715 2.795254
2009-06-18 03:56:23 51°14.855 2°52.319 21.512 0.262878 1.561244 2.795254
2009-06-18 03:57:23 51°14.896 2°52.023 21.5182 0.262878 1.561302 2.795254
2009-06-18 03:58:23 51°14.939 2°51.728 21.5229 0.262878 1.56139 2.795254
2009-06-18 03:59:23 51°14.977 2°51.432 21.5144 0.262878 1.561506 2.795254
2009-06-18 04:00:23 51°15.017 2°51.134 21.5285 0.262878 1.561652 2.76043
2009-06-18 04:01:23 51°15.053 2°50.831 21.5367 0.262878 1.561769 2.76043
2009-06-18 04:02:23 51°15.098 2°50.535 21.5471 0.262878 1.561915 2.76043
2009-06-18 04:03:23 51°15.156 2°50.244 21.5429 0.262878 1.562061 2.76043
2009-06-18 04:04:23 51°15.214 2°49.953 21.5692 0.262878 1.562148 2.76043
2009-06-18 04:05:23 51°15.273 2°49.663 21.5416 0.262878 1.562265 2.76043
2009-06-18 04:06:23 51°15.329 2°49.369 21.5637 0.262878 1.56244 2.76043
2009-06-18 04:07:23 51°15.384 2°49.078 21.5462 0.262878 1.562615 2.76043
2009-06-18 04:08:23 51°15.437 2°48.788 21.5728 0.262878 1.562791 2.76043
2009-06-18 04:09:23 51°15.499 2°48.505 21.5647 0.262878 1.562966 2.76043
2009-06-18 04:10:23 51°15.564 2°48.223 21.5834 0.262878 1.563083 2.76043
2009-06-18 04:11:23 51°15.625 2°47.936 21.5878 0.262878 1.563171 2.76043
2009-06-18 04:12:23 51°15.689 2°47.649 21.5854 0.262878 1.563229 2.76043
2009-06-18 04:13:23 51°15.762 2°47.369 21.5886 0.262878 1.563346 2.76043
2009-06-18 04:14:23 51°15.836 2°47.091 21.5885 0.262878 1.563551 2.76043
2009-06-18 04:15:23 51°15.913 2°46.817 21.6094 0.262878 1.563814 2.76043
2009-06-18 04:16:23 51°15.998 2°46.552 21.6187 0.262878 1.56396 2.76043
2009-06-18 04:17:23 51°16.082 2°46.285 21.6114 0.262878 1.564107 2.76043
2009-06-18 04:18:23 51°16.164 2°46.019 21.6175 0.262878 1.564224 2.76043
2009-06-18 04:19:23 51°16.244 2°45.754 21.606 0.262981 1.565046 2.76043
2009-06-18 04:20:23 51°16.339 2°45.506 21.6297 0.262981 1.565193 2.76043
2009-06-18 04:21:24 51°16.447 2°45.267 21.6327 0.262981 1.565339 2.76043
2009-06-18 04:22:23 51°16.551 2°45.033 21.6352 0.262981 1.565515 2.76043
2009-06-18 04:23:23 51°16.654 2°44.791 21.6417 0.262981 1.565633 2.76043
2009-06-18 04:24:24 51°16.762 2°44.546 21.6486 0.262981 1.56575 2.76043
2009-06-18 04:25:23 51°16.865 2°44.305 21.6573 0.262981 1.565926 2.76043
2009-06-18 04:26:23 51°16.968 2°44.056 21.6474 0.262878 1.565454 2.76043
2009-06-18 04:27:23 51°17.072 2°43.808 21.667 0.262878 1.56563 2.76043
2009-06-18 04:28:23 51°17.176 2°43.56 21.669 0.262775 1.565071 2.76043
2009-06-18 04:29:23 51°17.28 2°43.313 21.6743 0.262775 1.565159 2.76043
2009-06-18 04:30:24 51°17.387 2°43.065 21.6939 0.262672 1.564599 2.76043
2009-06-18 04:31:23 51°17.494 2°42.829 21.6837 0.262672 1.564746 2.76043
2009-06-18 04:32:23 51°17.605 2°42.587 21.7055 0.262569 1.564187 2.76043
2009-06-18 04:33:24 51°17.717 2°42.338 21.7076 0.262569 1.564274 2.76043
2009-06-18 04:34:23 51°17.825 2°42.097 21.7031 0.262466 1.563773 2.76043
2009-06-18 04:35:23 51°17.933 2°41.85 21.7321 0.262466 1.563803 2.76043
2009-06-18 04:36:23 51°18.04 2°41.6 21.7288 0.262363 1.563243 2.76043
2009-06-18 04:37:23 51°18.147 2°41.351 21.7377 0.262363 1.56336 2.76043
2009-06-18 04:38:24 51°18.256 2°41.099 21.7475 0.26226 1.562947 2.76043
2009-06-18 04:39:23 51°18.366 2°40.859 21.7455 0.26226 1.563123 2.76043
2009-06-18 04:40:24 51°18.48 2°40.612 21.7593 0.26226 1.56324 2.76043
2009-06-18 04:41:23 51°18.59 2°40.372 21.7639 0.26226 1.563328 2.76043
2009-06-18 04:42:23 51°18.703 2°40.127 21.7773 0.26226 1.563416 2.76043
2009-06-18 04:43:23 51°18.816 2°39.882 21.7987 0.262157 1.562915 2.76043
2009-06-18 04:44:24 51°18.931 2°39.634 21.7822 0.26226 1.563827 2.76043
2009-06-18 04:45:23 51°19.039 2°39.392 21.7965 0.262157 1.563355 2.76043
2009-06-18 04:46:23 51°19.15 2°39.146 21.8192 0.262157 1.563414 2.76043
2009-06-18 04:47:24 51°19.264 2°38.897 21.8221 0.26226 1.564062 2.725606
2009-06-18 04:48:23 51°19.371 2°38.653 21.8283 0.262054 1.562824 2.725606
2009-06-18 04:49:23 51°19.48 2°38.406 21.8307 0.262157 1.563531 2.76043
2009-06-18 04:50:23 51°19.589 2°38.16 21.8278 0.262157 1.563619 2.76043
2009-06-18 04:51:23 51°19.698 2°37.916 21.8454 0.262157 1.563736 2.76043
2009-06-18 04:52:23 51°19.809 2°37.673 21.8634 0.262157 1.563825 2.76043
2009-06-18 04:53:23 51°19.922 2°37.428 21.8505 0.262157 1.563942 2.725606
2009-06-18 04:54:23 51°20.035 2°37.184 21.8573 0.262157 1.564148 2.725606
2009-06-18 04:55:23 51°20.146 2°36.941 21.8773 0.262054 1.563763 2.725606
2009-06-18 04:56:23 51°20.255 2°36.697 21.8871 0.262054 1.56391 2.725606
2009-06-18 04:57:23 51°20.365 2°36.454 21.8691 0.261951 1.563291 2.725606
2009-06-18 04:58:23 51°20.476 2°36.208 21.8919 0.261951 1.56335 2.725606
2009-06-18 04:59:23 51°20.588 2°35.964 21.8852 0.261848 1.562789 2.725606
2009-06-18 05:00:23 51°20.699 2°35.719 21.9073 0.261848 1.562936 2.725606
2009-06-18 05:01:23 51°20.811 2°35.472 21.9214 0.261745 1.562346 2.725606
2009-06-18 05:02:23 51°20.923 2°35.226 21.9236 0.261745 1.562405 2.725606
2009-06-18 05:03:23 51°21.038 2°34.981 21.9304 0.261642 1.561785 2.725606
2009-06-18 05:04:23 51°21.154 2°34.738 21.943 0.261539 1.561136 2.725606
2009-06-18 05:05:23 51°21.296 2°34.536 21.948 0.261539 1.561224 2.725606
2009-06-18 05:06:24 51°21.455 2°34.36 21.9601 0.261437 1.560693 2.725606
2009-06-18 05:07:23 51°21.618 2°34.209 21.957 0.261437 1.560781 2.725606
2009-06-18 05:08:23 51°21.782 2°34.059 21.9622 0.261334 1.560278 2.725606
2009-06-18 05:09:24 51°21.949 2°33.92 21.9845 0.261334 1.560366 2.725606
2009-06-18 05:10:23 51°22.108 2°33.785 21.9792 0.261334 1.560484 2.725606
2009-06-18 05:11:23 51°22.265 2°33.637 21.9995 0.261231 1.559893 2.725606
2009-06-18 05:12:24 51°22.425 2°33.481 22.0117 0.261231 1.559952 2.725606
2009-06-18 05:13:23 51°22.582 2°33.333 22.0128 0.261231 1.559981 2.725606
2009-06-18 05:14:24 51°22.746 2°33.181 22.0235 0.261231 1.56004 2.725606
2009-06-18 05:15:24 51°22.907 2°33.031 22.0128 0.261128 1.55945 2.690782
2009-06-18 05:16:23 51°23.065 2°32.882 22.0344 0.261231 1.560128 2.725606
2009-06-18 05:17:23 51°23.228 2°32.73 22.0254 0.261231 1.560187 2.690782
2009-06-18 05:18:24 51°23.394 2°32.578 22.0276 0.261231 1.560334 2.725606
2009-06-18 05:19:23 51°23.555 2°32.432 22.0517 0.261128 1.559802 2.725606
2009-06-18 05:20:23 51°23.716 2°32.286 22.05 0.261231 1.560569 2.690782
2009-06-18 05:21:24 51°23.88 2°32.139 22.0623 0.261231 1.560627 2.725606
2009-06-18 05:22:23 51°24.037 2°31.996 22.0671 0.261231 1.560715 2.690782
2009-06-18 05:23:24 51°24.206 2°31.871 22.0682 0.261231 1.560804 2.690782
2009-06-18 05:24:24 51°24.386 2°31.809 22.0707 0.261334 1.561571 2.690782
2009-06-18 05:25:23 51°24.57 2°31.778 22.0777 0.261231 1.561039 2.690782
2009-06-18 05:26:23 51°24.726 2°31.73 22.0939 0.261231 1.561097 2.690782
2009-06-18 05:27:24 51°24.806 2°31.731 22.1082 0.261334 1.561865 2.690782
2009-06-18 05:28:23 51°24.864 2°31.723 22.1048 0.261334 1.561865 2.690782
2009-06-18 05:29:23 51°24.906 2°31.728 22.0928 0.261231 1.561362 2.690782
2009-06-18 05:30:23 51°24.935 2°31.72 22.1262 0.261231 1.561333 2.655957
2009-06-18 05:31:23 51°24.955 2°31.672 22.1119 0.261231 1.561274 2.690782
2009-06-18 05:32:23 51°24.983 2°31.644 22.1241 0.261231 1.561333 2.655957
2009-06-18 05:33:23 51°25.004 2°31.644 22.141 0.261128 1.560771 2.690782
2009-06-18 05:34:23 51°25.017 2°31.65 22.1373 0.261128 1.560771 2.655957
2009-06-18 05:35:23 51°25.027 2°31.659 22.1342 0.261128 1.56083 2.690782
2009-06-18 05:36:23 51°25.034 2°31.673 22.1505 0.261025 1.560268 2.690782
2009-06-18 05:37:23 51°25.037 2°31.691 22.1407 0.261025 1.560327 2.655957
2009-06-18 05:38:23 51°25.038 2°31.711 22.1695 0.261025 1.560386 2.655957
2009-06-18 05:39:23 51°25.038 2°31.731 22.1581 0.261025 1.560415 2.655957
2009-06-18 05:40:23 51°25.037 2°31.75 22.153 0.261025 1.560445 2.655957
2009-06-18 05:41:24 51°25.036 2°31.771 22.1695 0.261025 1.560445 2.621133
2009-06-18 05:42:23 51°25.036 2°31.791 22.175 0.260922 1.559824 2.655957
2009-06-18 05:43:23 51°25.037 2°31.811 22.1821 0.261025 1.560503 2.655957
2009-06-18 05:44:23 51°25.038 2°31.833 22.1902 0.261025 1.560591 2.655957
2009-06-18 05:45:24 51°25.044 2°31.858 22.1851 0.260922 1.559971 2.621133
2009-06-18 05:46:23 51°25.066 2°31.908 22.1862 0.261025 1.56068 2.655957
2009-06-18 05:47:23 51°25.075 2°31.991 22.1895 0.261025 1.560797 2.655957
2009-06-18 05:48:24 51°25.059 2°32.053 22.1932 0.261025 1.560886 2.621133
2009-06-18 05:49:23 51°25.042 2°32.093 22.209 0.261128 1.561594 2.655957
2009-06-18 05:50:23 51°25.028 2°32.12 22.2149 0.261128 1.561712 2.621133
2009-06-18 05:51:23 51°25.012 2°32.142 22.2281 0.261128 1.5618 2.621133
2009-06-18 05:52:23 51°24.983 2°32.162 22.2221 0.261128 1.561859 2.621133
2009-06-18 05:53:24 51°24.941 2°32.201 22.2344 0.261128 1.562007 2.621133
2009-06-18 05:54:23 51°24.9 2°32.261 22.2355 0.261128 1.562124 2.621133
2009-06-18 05:55:24 51°24.869 2°32.32 22.2395 0.261231 1.562951 2.621133
2009-06-18 05:56:23 51°24.845 2°32.369 22.2532 0.261231 1.563158 2.621133
2009-06-18 05:57:23 51°24.82 2°32.414 22.2627 0.261231 1.563335 2.621133
2009-06-18 05:58:23 51°24.788 2°32.481 22.2529 0.261231 1.563453 2.621133
2009-06-18 05:59:23 51°24.757 2°32.565 22.2705 0.261231 1.563453 2.621133
2009-06-18 06:00:23 51°24.719 2°32.667 22.2567 0.261231 1.563747 2.621133
2009-06-18 06:01:24 51°24.675 2°32.79 22.2808 0.261231 1.563718 2.586309
2009-06-18 06:02:24 51°24.651 2°32.893 22.2744 0.261231 1.563866 2.586309
2009-06-18 06:03:23 51°24.642 2°32.961 22.284 0.261231 1.563895 2.586309
2009-06-18 06:04:24 51°24.637 2°33.003 22.2905 0.261231 1.563984 2.586309
2009-06-18 06:05:23 51°24.635 2°33.035 22.2803 0.261231 1.564072 2.621133
2009-06-18 06:06:23 51°24.617 2°33.06 22.3044 0.261231 1.564102 2.621133
2009-06-18 06:07:23 51°24.581 2°33.053 22.2968 0.261128 1.563657 2.621133
2009-06-18 06:08:23 51°24.557 2°33.01 22.3088 0.261231 1.564397 2.586309
2009-06-18 06:09:23 51°24.546 2°32.95 22.3063 0.261128 1.563923 2.586309
2009-06-18 06:10:23 51°24.54 2°32.912 22.3318 0.261231 1.564604 2.621133
2009-06-18 06:11:24 51°24.538 2°32.9 22.3342 0.261231 1.564692 2.621133
2009-06-18 06:12:23 51°24.538 2°32.918 22.3322 0.261231 1.564751 2.586309
2009-06-18 06:13:23 51°24.537 2°32.946 22.3267 0.261128 1.564159 2.586309
2009-06-18 06:14:23 51°24.536 2°32.978 22.3356 0.261128 1.564189 2.586309
2009-06-18 06:15:23 51°24.531 2°33.003 22.3382 0.261128 1.564307 2.586309
2009-06-18 06:16:23 51°24.523 2°32.989 22.3432 0.261128 1.564366 2.551485
2009-06-18 06:17:23 51°24.54 2°32.948 22.343 0.261128 1.564602 2.586309
2009-06-18 06:18:24 51°24.539 2°32.92 22.3445 0.261128 1.564573 2.586309
2009-06-18 06:19:23 51°24.542 2°32.902 22.3674 0.261128 1.564662 2.586309
2009-06-18 06:20:24 51°24.55 2°32.888 22.3683 0.261128 1.565016 2.551485
2009-06-18 06:21:23 51°24.543 2°32.884 22.3748 0.261128 1.564987 2.586309
2009-06-18 06:22:24 51°24.538 2°32.905 22.3799 0.261128 1.565016 2.551485
2009-06-18 06:23:23 51°24.541 2°32.943 22.3672 0.261128 1.565194 2.586309
2009-06-18 06:24:23 51°24.546 2°32.982 22.3932 0.261128 1.565312 2.551485
2009-06-18 06:25:24 51°24.55 2°33.023 22.3838 0.261025 1.564749 2.551485
2009-06-18 06:26:23 51°24.55 2°33.062 22.3778 0.261128 1.56549 2.551485
2009-06-18 06:27:24 51°24.533 2°33.082 22.3799 0.261128 1.565726 2.551485
2009-06-18 06:28:23 51°24.524 2°33.04 22.3915 0.261128 1.566052 2.551485
2009-06-18 06:29:24 51°24.538 2°32.956 22.4193 0.261231 1.56703 2.551485
2009-06-18 06:30:23 51°24.541 2°32.883 22.4074 0.261334 1.567653 2.551485
2009-06-18 06:31:24 51°24.555 2°32.862 22.3952 0.261334 1.567801 2.551485
2009-06-18 06:32:23 51°24.568 2°32.859 22.4062 0.261231 1.567267 2.516661
2009-06-18 06:33:23 51°24.57 2°32.86 22.4211 0.261334 1.567801 2.551485
2009-06-18 06:34:24 51°24.558 2°32.865 22.405 0.261334 1.56783 2.551485
2009-06-18 06:35:23 51°24.545 2°32.865 22.4285 0.261334 1.568097 2.516661
2009-06-18 06:36:24 51°24.537 2°32.876 22.4223 0.261231 1.567534 2.516661
2009-06-18 06:37:23 51°24.537 2°32.909 22.4342 0.261334 1.568365 2.516661
2009-06-18 06:38:23 51°24.538 2°32.948 22.4327 0.261231 1.56795 2.516661
2009-06-18 06:39:23 51°24.53 2°32.966 22.4336 0.261231 1.568098 2.516661
2009-06-18 06:40:23 51°24.529 2°32.949 22.428 0.261231 1.568276 2.516661
2009-06-18 06:41:24 51°24.536 2°32.921 22.4325 0.261231 1.568514 2.516661
2009-06-18 06:42:24 51°24.53 2°32.9 22.4614 0.261231 1.568484 2.516661
2009-06-18 06:43:24 51°24.528 2°32.901 22.4534 0.261231 1.568692 2.516661
2009-06-18 06:44:23 51°24.526 2°32.909 22.4536 0.261231 1.568781 2.516661
2009-06-18 06:45:24 51°24.54 2°32.893 22.4593 0.261231 1.56896 2.516661
2009-06-18 06:46:23 51°24.555 2°32.901 22.4807 0.261231 1.569019 2.516661
2009-06-18 06:47:24 51°24.563 2°32.936 22.4883 0.261231 1.569108 2.516661
2009-06-18 06:48:23 51°24.574 2°32.938 22.4639 0.261231 1.569168 2.481837
2009-06-18 06:49:24 51°24.569 2°32.948 22.4775 0.261128 1.568485 2.481837
2009-06-18 06:50:23 51°24.565 2°32.973 22.4848 0.261128 1.568634 2.481837
2009-06-18 06:51:23 51°24.563 2°33.008 22.4817 0.261128 1.568782 2.481837
2009-06-18 06:52:24 51°24.564 2°33.044 22.4836 0.261025 1.568397 2.481837
2009-06-18 06:53:23 51°24.566 2°33.084 22.4828 0.261128 1.569228 2.481837
2009-06-18 06:54:24 51°24.57 2°33.131 22.4705 0.261025 1.568783 2.481837
2009-06-18 06:55:23 51°24.576 2°33.177 22.486 0.261025 1.568902 2.481837
2009-06-18 06:56:23 51°24.563 2°33.208 22.4354 0.261025 1.569021 2.481837
2009-06-18 06:57:24 51°24.557 2°33.164 22.4727 0.261025 1.56914 2.481837
2009-06-18 06:58:24 51°24.582 2°33.151 22.4801 0.261025 1.569379 2.481837
2009-06-18 06:59:24 51°24.62 2°33.176 22.4719 0.261128 1.570121 2.447013
2009-06-18 07:00:23 51°24.648 2°33.222 22.4932 0.261025 1.569557 2.481837
2009-06-18 07:01:24 51°24.672 2°33.269 22.4909 0.261128 1.57027 2.447013
2009-06-18 07:02:24 51°24.691 2°33.313 22.5063 0.261025 1.569676 2.447013
2009-06-18 07:03:23 51°24.707 2°33.356 22.5039 0.261025 1.569766 2.447013
2009-06-18 07:04:23 51°24.721 2°33.396 22.5076 0.260922 1.569201 2.447013
2009-06-18 07:05:24 51°24.732 2°33.44 22.4999 0.260922 1.569261 2.412189
2009-06-18 07:06:23 51°24.742 2°33.483 22.4992 0.260922 1.56944 2.447013
2009-06-18 07:07:23 51°24.756 2°33.526 22.5238 0.260922 1.569678 2.447013
2009-06-18 07:08:23 51°24.794 2°33.497 22.5176 0.260819 1.569352 2.447013
2009-06-18 07:09:23 51°24.761 2°33.36 22.5094 0.260716 1.568727 2.447013
2009-06-18 07:10:23 51°24.688 2°33.194 22.5252 0.260716 1.568847 2.447013
2009-06-18 07:11:23 51°24.618 2°33.02 22.5173 0.260613 1.568341 2.447013
2009-06-18 07:12:23 51°24.561 2°32.836 22.526 0.260613 1.568461 2.447013
2009-06-18 07:13:24 51°24.503 2°32.65 22.5166 0.260613 1.568639 2.412189
2009-06-18 07:14:23 51°24.448 2°32.471 22.5232 0.260613 1.568729 2.412189
2009-06-18 07:15:24 51°24.392 2°32.282 22.5351 0.260613 1.568818 2.412189
2009-06-18 07:16:23 51°24.338 2°32.098 22.5414 0.26051 1.568283 2.412189
2009-06-18 07:17:23 51°24.29 2°31.903 22.5406 0.260613 1.569087 2.412189
2009-06-18 07:18:23 51°24.242 2°31.706 22.5392 0.260613 1.569295 2.412189
2009-06-18 07:19:23 51°24.196 2°31.508 22.5496 0.260613 1.569415 2.412189
2009-06-18 07:20:23 51°24.15 2°31.307 22.5574 0.260613 1.569534 2.412189
2009-06-18 07:21:24 51°24.112 2°31.145 22.562 0.260613 1.569594 2.412189
2009-06-18 07:22:23 51°24.086 2°31.047 22.552 0.260716 1.570308 2.412189
2009-06-18 07:23:23 51°24.058 2°30.939 22.5633 0.260613 1.569683 2.377365
2009-06-18 07:24:23 51°24.025 2°30.817 22.5663 0.260613 1.569713 2.412189
2009-06-18 07:25:23 51°23.984 2°30.664 22.5704 0.260613 1.569713 2.377365
2009-06-18 07:26:24 51°23.937 2°30.492 22.5569 0.260613 1.569773 2.377365
2009-06-18 07:27:23 51°23.885 2°30.328 22.582 0.260613 1.569863 2.377365
2009-06-18 07:28:23 51°23.836 2°30.158 22.5814 0.260613 1.570012 2.377365
2009-06-18 07:29:23 51°23.791 2°29.994 22.5789 0.260613 1.570191 2.377365
2009-06-18 07:30:23 51°23.768 2°29.901 22.5793 0.260716 1.571055 2.377365
2009-06-18 07:31:24 51°23.757 2°29.853 22.588 0.260716 1.571265 2.377365
2009-06-18 07:32:23 51°23.749 2°29.826 22.5933 0.260819 1.572039 2.377365
2009-06-18 07:33:24 51°23.741 2°29.799 22.592 0.260819 1.572249 2.342541
2009-06-18 07:34:23 51°23.736 2°29.777 22.5876 0.260819 1.572428 2.342541
2009-06-18 07:35:23 51°23.733 2°29.793 22.5846 0.260819 1.572488 2.342541
2009-06-18 07:36:23 51°23.738 2°29.823 22.5927 0.260819 1.572698 2.342541
2009-06-18 07:37:23 51°23.746 2°29.858 22.5956 0.260922 1.573533 2.342541
2009-06-18 07:38:23 51°23.753 2°29.894 22.609 0.260922 1.573683 2.342541
2009-06-18 07:39:23 51°23.745 2°29.923 22.597 0.260819 1.573147 2.342541
2009-06-18 07:40:24 51°23.731 2°29.9 22.5986 0.260819 1.573417 2.342541
2009-06-18 07:41:23 51°23.739 2°29.802 22.6053 0.260819 1.573597 2.307717
2009-06-18 07:42:23 51°23.758 2°29.754 22.6129 0.260819 1.573687 2.307717
2009-06-18 07:43:23 51°23.756 2°29.728 22.6114 0.260922 1.574253 2.307717
2009-06-18 07:44:23 51°23.748 2°29.739 22.6039 0.260819 1.573687 2.307717
2009-06-18 07:45:23 51°23.745 2°29.763 22.6115 0.260716 1.573271 2.307717
2009-06-18 07:46:24 51°23.747 2°29.789 22.619 0.260716 1.573421 2.307717
2009-06-18 07:47:24 51°23.752 2°29.82 22.619 0.260613 1.572915 2.307717
2009-06-18 07:48:24 51°23.76 2°29.855 22.6217 0.260613 1.573065 2.307717
2009-06-18 07:49:24 51°23.769 2°29.892 22.6253 0.260613 1.573185 2.307717
2009-06-18 07:50:23 51°23.764 2°29.912 22.616 0.26051 1.572678 2.272893
2009-06-18 07:51:24 51°23.751 2°29.873 22.6297 0.26051 1.572858 2.272893
2009-06-18 07:52:23 51°23.746 2°29.794 22.6216 0.260408 1.572412 2.272893
2009-06-18 07:53:23 51°23.749 2°29.751 22.6284 0.260408 1.572262 2.272893
2009-06-18 07:54:25 51°23.757 2°29.782 22.6305 0.260305 1.571846 2.272893
2009-06-18 07:55:26 51°23.769 2°29.797 22.6345 0.260202 1.571339 2.272893
2009-06-18 07:56:25 51°23.756 2°29.756 22.645 0.259996 1.569787 2.238069
2009-06-18 07:57:23 51°23.739 2°29.764 22.6469 0.259893 1.56913 2.272893
2009-06-18 07:58:24 51°23.737 2°29.789 22.647 0.259687 1.567877 2.238069
2009-06-18 07:59:24 51°23.743 2°29.82 22.6346 0.259584 1.567251 2.238069
2009-06-18 08:00:23 51°23.755 2°29.856 22.6452 0.259378 1.565998 2.238069
2009-06-18 08:01:23 51°23.77 2°29.893 22.645 0.259275 1.565372 2.238069
2009-06-18 08:02:24 51°23.781 2°29.928 22.6473 0.259172 1.564715 2.238069
2009-06-18 08:03:23 51°23.764 2°29.935 22.6366 0.259069 1.564119 2.238069
2009-06-18 08:04:23 51°23.757 2°29.891 22.6595 0.258966 1.563492 2.238069
2009-06-18 08:05:24 51°23.743 2°29.833 22.6484 0.258966 1.563463 2.203245
2009-06-18 08:06:23 51°23.734 2°29.786 22.6575 0.258761 1.56215 2.203245
2009-06-18 08:07:24 51°23.729 2°29.774 22.6661 0.258658 1.561434 2.203245
2009-06-18 08:08:24 51°23.732 2°29.783 22.6551 0.258658 1.561434 2.203245
2009-06-18 08:09:23 51°23.74 2°29.807 22.6443 0.258555 1.560778 2.203245
2009-06-18 08:10:23 51°23.749 2°29.841 22.6656 0.258452 1.560062 2.203245
2009-06-18 08:11:23 51°23.749 2°29.861 22.6672 0.258349 1.559287 2.203245
2009-06-18 08:12:24 51°23.746 2°29.824 22.6634 0.258246 1.558512 2.203245
2009-06-18 08:13:23 51°23.741 2°29.793 22.6734 0.25804 1.557171 2.203245
2009-06-18 08:14:24 51°23.73 2°29.789 22.6508 0.257937 1.556307 2.168421
2009-06-18 08:15:23 51°23.732 2°29.764 22.6667 0.257731 1.554906 2.168421
2009-06-18 08:16:24 51°23.748 2°29.762 22.6543 0.257731 1.554818 2.168421
2009-06-18 08:17:23 51°23.762 2°29.782 22.6648 0.257525 1.553328 2.168421
2009-06-18 08:18:24 51°23.778 2°29.799 22.663 0.257422 1.552584 2.168421
2009-06-18 08:19:23 51°23.786 2°29.798 22.6692 0.257319 1.55184 2.168421
2009-06-18 08:20:24 51°23.774 2°29.775 22.6711 0.257216 1.551007 2.168421
2009-06-18 08:21:23 51°23.756 2°29.744 22.6811 0.257113 1.550322 2.168421
2009-06-18 08:22:23 51°23.738 2°29.755 22.6735 0.257113 1.550174 2.168421
2009-06-18 08:23:23 51°23.74 2°29.782 22.6818 0.257113 1.550086 2.168421
2009-06-18 08:24:23 51°23.746 2°29.813 22.6849 0.25701 1.549401 2.168421
2009-06-18 08:25:24 51°23.755 2°29.846 22.6851 0.25701 1.549342 2.168421
2009-06-18 08:26:23 51°23.765 2°29.88 22.6783 0.25701 1.549283 2.133597
2009-06-18 08:27:24 51°23.777 2°29.916 22.6879 0.257113 1.549908 2.133597
2009-06-18 08:28:24 51°23.79 2°29.952 22.6798 0.257113 1.549879 2.133597
2009-06-18 08:29:23 51°23.791 2°29.98 22.6761 0.257216 1.550475 2.133597
2009-06-18 08:30:24 51°23.765 2°29.957 22.6827 0.257216 1.550534 2.133597
2009-06-18 08:31:23 51°23.747 2°29.865 22.69 0.257319 1.55113 2.133597
2009-06-18 08:32:24 51°23.736 2°29.777 22.6866 0.257422 1.551844 2.133597
2009-06-18 08:33:23 51°23.739 2°29.737 22.6874 0.257422 1.551756 2.133597
2009-06-18 08:34:24 51°23.751 2°29.752 22.6768 0.257525 1.552441 2.133597
2009-06-18 08:35:24 51°23.754 2°29.76 22.6964 0.257525 1.552411 2.098773
2009-06-18 08:36:23 51°23.746 2°29.767 22.6993 0.257628 1.552977 2.098773
2009-06-18 08:37:24 51°23.743 2°29.788 22.7014 0.257731 1.553633 2.098773
2009-06-18 08:38:24 51°23.746 2°29.812 22.6979 0.257731 1.553633 2.098773
2009-06-18 08:39:24 51°23.752 2°29.838 22.6967 0.257731 1.553633 2.098773
2009-06-18 08:40:23 51°23.76 2°29.865 22.6915 0.257834 1.554258 2.098773
2009-06-18 08:41:23 51°23.767 2°29.892 22.7032 0.257834 1.554229 2.098773
2009-06-18 08:42:23 51°23.76 2°29.873 22.6951 0.257937 1.554854 2.098773
2009-06-18 08:43:24 51°23.744 2°29.817 22.6985 0.25804 1.555598 2.098773
2009-06-18 08:44:24 51°23.732 2°29.772 22.6956 0.25804 1.55545 2.063949
2009-06-18 08:45:24 51°23.745 2°29.747 22.7069 0.258143 1.556194 2.063949
2009-06-18 08:46:26 51°23.758 2°29.786 22.712 0.258143 1.556194 2.063949
2009-06-18 08:47:27 51°23.764 2°29.782 22.6899 0.258246 1.556879 2.063949
2009-06-18 08:48:25 51°23.748 2°29.776 22.7049 0.258246 1.55679 2.063949
2009-06-18 08:49:23 51°23.74 2°29.79 22.7138 0.258246 1.55679 2.063949
2009-06-18 08:50:23 51°23.739 2°29.815 22.71 0.258349 1.557416 2.063949
2009-06-18 08:51:23 51°23.744 2°29.843 22.7166 0.258246 1.55679 2.063949
2009-06-18 08:52:23 51°23.755 2°29.877 22.7147 0.258349 1.557475 2.029124
2009-06-18 08:53:24 51°23.761 2°29.906 22.6997 0.258349 1.557446 2.029124
2009-06-18 08:54:24 51°23.758 2°29.907 22.7101 0.258452 1.558131 2.029124
2009-06-18 08:55:24 51°23.75 2°29.877 22.7079 0.258452 1.55822 2.029124
2009-06-18 08:56:23 51°23.741 2°29.819 22.7117 0.258555 1.558845 2.029124
2009-06-18 08:57:24 51°23.732 2°29.767 22.7104 0.258555 1.558934 2.029124
2009-06-18 08:58:24 51°23.736 2°29.782 22.699 0.258658 1.55956 2.029124
2009-06-18 08:59:24 51°23.742 2°29.806 22.7153 0.258658 1.55956 1.9943
2009-06-18 09:00:24 51°23.747 2°29.835 22.7045 0.258658 1.55959 1.9943
2009-06-18 09:01:24 51°23.754 2°29.865 22.7122 0.258658 1.559619 1.9943
2009-06-18 09:02:24 51°23.761 2°29.899 22.7103 0.258658 1.559679 1.9943
2009-06-18 09:03:23 51°23.765 2°29.932 22.7127 0.25876 1.560394 1.9943
2009-06-18 09:04:24 51°23.755 2°29.928 22.7215 0.25876 1.560423 1.9943
2009-06-18 09:05:23 51°23.745 2°29.868 22.7016 0.25876 1.560572 1.9943
2009-06-18 09:06:23 51°23.748 2°29.8 22.7237 0.25876 1.560513 1.9943
2009-06-18 09:07:24 51°23.745 2°29.759 22.7219 0.258863 1.561198 1.959476
2009-06-18 09:08:23 51°23.738 2°29.763 22.7129 0.258863 1.561168 1.959476
2009-06-18 09:09:24 51°23.735 2°29.784 22.7228 0.258863 1.561168 1.959476
2009-06-18 09:10:24 51°23.739 2°29.814 22.7151 0.258966 1.561854 1.959476
2009-06-18 09:11:24 51°23.748 2°29.847 22.7163 0.258863 1.561228 1.959476
2009-06-18 09:12:24 51°23.761 2°29.883 22.7244 0.258966 1.561943 1.924652
2009-06-18 09:13:23 51°23.778 2°29.918 22.722 0.258966 1.561943 1.924652
2009-06-18 09:14:23 51°23.767 2°29.945 22.7014 0.258966 1.561943 1.924652
2009-06-18 09:15:23 51°23.756 2°29.928 22.7164 0.258966 1.562062 1.924652
2009-06-18 09:16:24 51°23.753 2°29.899 22.7241 0.258966 1.562181 1.924652
2009-06-18 09:17:24 51°23.741 2°29.869 22.7246 0.258966 1.562062 1.924652
2009-06-18 09:18:24 51°23.747 2°29.822 22.7297 0.258966 1.562211 1.889828
2009-06-18 09:19:23 51°23.737 2°29.782 22.7255 0.258966 1.562151 1.889828
2009-06-18 09:20:24 51°23.738 2°29.74 22.7362 0.258966 1.562181 1.889828
2009-06-18 09:21:24 51°23.743 2°29.73 22.7348 0.258966 1.562181 1.889828
2009-06-18 09:22:24 51°23.745 2°29.73 22.7325 0.258966 1.562211 1.889828
2009-06-18 09:23:24 51°23.745 2°29.742 22.7357 0.258966 1.562211 1.889828
2009-06-18 09:24:24 51°23.744 2°29.764 22.7325 0.258863 1.561615 1.889828
2009-06-18 09:25:24 51°23.743 2°29.79 22.7248 0.258966 1.56236 1.855004
2009-06-18 09:26:23 51°23.748 2°29.82 22.7379 0.258863 1.561734 1.855004
2009-06-18 09:27:24 51°23.761 2°29.856 22.7239 0.258863 1.561763 1.855004
2009-06-18 09:28:24 51°23.778 2°29.894 22.7343 0.258863 1.561734 1.855004
2009-06-18 09:29:23 51°23.799 2°29.929 22.7321 0.258863 1.561704 1.855004
2009-06-18 09:30:24 51°23.797 2°29.962 22.7212 0.258863 1.561674 1.855004
2009-06-18 09:31:24 51°23.781 2°29.949 22.7237 0.258863 1.561704 1.855004
2009-06-18 09:32:24 51°23.806 2°29.909 22.7319 0.258863 1.561763 1.82018
2009-06-18 09:33:24 51°23.868 2°29.928 22.7356 0.258863 1.561793 1.82018
2009-06-18 09:34:24 51°23.934 2°30.011 22.7435 0.258863 1.561853 1.82018
2009-06-18 09:35:24 51°24 2°30.12 22.7348 0.258863 1.561853 1.82018
2009-06-18 09:36:24 51°24.068 2°30.232 22.736 0.258863 1.561823 1.82018
2009-06-18 09:37:24 51°24.138 2°30.345 22.7415 0.25876 1.561167 1.785356
2009-06-18 09:38:24 51°24.208 2°30.458 22.7348 0.258863 1.561853 1.785356
2009-06-18 09:39:24 51°24.278 2°30.572 22.7296 0.258863 1.561823 1.785356
2009-06-18 09:40:24 51°24.348 2°30.685 22.7315 0.25876 1.561167 1.785356
2009-06-18 09:41:24 51°24.419 2°30.797 22.7404 0.25876 1.561167 1.785356
2009-06-18 09:42:24 51°24.49 2°30.908 22.7329 0.25876 1.561197 1.785356
2009-06-18 09:43:24 51°24.558 2°31.011 22.7346 0.25876 1.561197 1.785356
2009-06-18 09:44:24 51°24.611 2°31.092 22.7436 0.25876 1.561197 1.750532
2009-06-18 09:45:24 51°24.656 2°31.156 22.7501 0.25876 1.561197 1.750532
2009-06-18 09:46:24 51°24.696 2°31.213 22.7453 0.258658 1.560601 1.750532
2009-06-18 09:47:24 51°24.733 2°31.268 22.7369 0.258658 1.56063 1.750532
2009-06-18 09:48:24 51°24.768 2°31.32 22.7527 0.258658 1.560601 1.750532
2009-06-18 09:49:24 51°24.795 2°31.394 22.7298 0.258658 1.560601 1.715708
2009-06-18 09:50:24 51°24.789 2°31.465 22.7434 0.258658 1.56063 1.715708
2009-06-18 09:51:24 51°24.771 2°31.498 22.7396 0.258658 1.560601 1.715708
2009-06-18 09:52:24 51°24.766 2°31.524 22.7409 0.258658 1.560601 1.715708
2009-06-18 09:53:24 51°24.769 2°31.551 22.7465 0.258658 1.560541 1.715708
2009-06-18 09:54:24 51°24.781 2°31.578 22.7515 0.258658 1.560541 1.715708
2009-06-18 09:55:24 51°24.798 2°31.603 22.7404 0.258658 1.560571 1.680884
2009-06-18 09:56:24 51°24.819 2°31.625 22.752 0.258658 1.560601 1.680884
2009-06-18 09:57:24 51°24.839 2°31.644 22.7369 0.258658 1.560601 1.680884
2009-06-18 09:58:24 51°24.857 2°31.665 22.742 0.258658 1.56063 1.680884
2009-06-18 09:59:24 51°24.874 2°31.688 22.7396 0.25876 1.561316 1.680884
2009-06-18 10:00:24 51°24.89 2°31.712 22.7514 0.25876 1.561346 1.64606
2009-06-18 10:01:24 51°24.905 2°31.739 22.7451 0.25876 1.561405 1.64606
2009-06-18 10:02:24 51°24.919 2°31.766 22.7355 0.25876 1.561435 1.64606
2009-06-18 10:03:24 51°24.931 2°31.791 22.7464 0.25876 1.561465 1.611236
2009-06-18 10:04:24 51°24.943 2°31.814 22.7469 0.258863 1.562091 1.611236
2009-06-18 10:05:24 51°24.956 2°31.839 22.7486 0.258863 1.562091 1.611236
2009-06-18 10:06:24 51°24.969 2°31.864 22.7402 0.258863 1.562091 1.611236
2009-06-18 10:07:24 51°24.984 2°31.89 22.7507 0.258863 1.562091 1.611236
2009-06-18 10:08:24 51°24.999 2°31.916 22.7462 0.258863 1.562151 1.576412
2009-06-18 10:09:24 51°25.015 2°31.942 22.7381 0.258966 1.562866 1.576412
2009-06-18 10:10:24 51°25.031 2°31.968 22.7464 0.258966 1.562896 1.576412
2009-06-18 10:11:24 51°25.047 2°31.992 22.7466 0.258966 1.562956 1.576412
2009-06-18 10:12:24 51°25.064 2°32.017 22.7476 0.258966 1.562985 1.576412
2009-06-18 10:13:25 51°25.081 2°32.041 22.7444 0.259069 1.563701 1.576412
2009-06-18 10:14:24 51°25.097 2°32.065 22.7459 0.259069 1.563731 1.541588
2009-06-18 10:15:24 51°25.112 2°32.092 22.7397 0.259069 1.563761 1.541588
2009-06-18 10:16:24 51°25.107 2°32.129 22.7232 0.259069 1.563761 1.541588
2009-06-18 10:17:24 51°25.087 2°32.135 22.7356 0.259069 1.56382 1.541588
2009-06-18 10:18:24 51°25.06 2°32.089 22.7453 0.259069 1.56382 1.506764
2009-06-18 10:19:24 51°25.007 2°32.005 22.7325 0.259069 1.56382 1.506764
2009-06-18 10:20:24 51°24.948 2°31.907 22.7467 0.259069 1.56382 1.506764
2009-06-18 10:21:24 51°24.889 2°31.8 22.7462 0.259069 1.56385 1.506764
2009-06-18 10:22:24 51°24.831 2°31.694 22.7446 0.259069 1.56391 1.47194
2009-06-18 10:23:24 51°24.796 2°31.648 22.7486 0.259069 1.56394 1.47194
2009-06-18 10:24:24 51°24.791 2°31.668 22.7577 0.259069 1.56394 1.47194
2009-06-18 10:25:24 51°24.792 2°31.7 22.7458 0.259069 1.56394 1.47194
2009-06-18 10:26:24 51°24.796 2°31.73 22.7491 0.259069 1.56397 1.437116
2009-06-18 10:27:24 51°24.801 2°31.761 22.7504 0.258966 1.563313 1.437116
2009-06-18 10:28:24 51°24.808 2°31.79 22.7344 0.258966 1.563343 1.437116
2009-06-18 10:29:24 51°24.817 2°31.818 22.7356 0.259069 1.564029 1.437116
2009-06-18 10:30:24 51°24.825 2°31.843 22.7465 0.259069 1.564059 1.402292
2009-06-18 10:31:24 51°24.834 2°31.867 22.7474 0.259069 1.564089 1.402292
2009-06-18 10:32:24 51°24.844 2°31.89 22.7402 0.259069 1.564119 1.402292
2009-06-18 10:33:24 51°24.854 2°31.914 22.7446 0.259069 1.564149 1.402292
2009-06-18 10:34:24 51°24.864 2°31.938 22.7336 0.259069 1.564179 1.367467
2009-06-18 10:35:24 51°24.873 2°31.961 22.7484 0.259069 1.564208 1.367467
2009-06-18 10:36:24 51°24.884 2°31.984 22.7501 0.259069 1.564208 1.367467
2009-06-18 10:37:24 51°24.894 2°32.007 22.7391 0.259069 1.564238 1.367467
2009-06-18 10:38:25 51°24.893 2°32.035 22.7429 0.259069 1.564208 1.332643
2009-06-18 10:39:24 51°24.864 2°32.055 22.733 0.259069 1.564208 1.332643
2009-06-18 10:40:24 51°24.817 2°32.014 22.7465 0.258966 1.563582 1.332643
2009-06-18 10:41:24 51°24.779 2°31.917 22.7424 0.258966 1.563612 1.332643
2009-06-18 10:42:24 51°24.765 2°31.793 22.7349 0.258966 1.563612 1.297819
2009-06-18 10:43:24 51°24.759 2°31.675 22.7467 0.258966 1.563582 1.297819
2009-06-18 10:44:24 51°24.771 2°31.64 22.7427 0.258966 1.563612 1.297819
2009-06-18 10:45:24 51°24.782 2°31.633 22.7558 0.258863 1.562896 1.262995
2009-06-18 10:46:24 51°24.793 2°31.633 22.7471 0.258863 1.562896 1.262995
2009-06-18 10:47:24 51°24.805 2°31.64 22.7475 0.258863 1.562866 1.262995
2009-06-18 10:48:24 51°24.819 2°31.652 22.7328 0.258761 1.56215 1.262995
2009-06-18 10:49:24 51°24.833 2°31.67 22.7354 0.258761 1.56212 1.228171
2009-06-18 10:50:24 51°24.846 2°31.692 22.7387 0.258658 1.561405 1.228171
2009-06-18 10:51:24 51°24.857 2°31.716 22.7466 0.258658 1.561345 1.228171
2009-06-18 10:52:24 51°24.868 2°31.739 22.7318 0.258658 1.561285 1.193347
2009-06-18 10:53:24 51°24.877 2°31.76 22.7448 0.258555 1.560599 1.193347
2009-06-18 10:54:24 51°24.888 2°31.782 22.7263 0.258555 1.56054 1.193347
2009-06-18 10:55:24 51°24.898 2°31.803 22.7381 0.258555 1.56048 1.193347
2009-06-18 10:56:24 51°24.926 2°31.823 22.7508 0.258452 1.559765 1.193347
2009-06-18 10:57:24 51°24.965 2°31.78 22.7531 0.258452 1.559705 1.193347
2009-06-18 10:58:24 51°24.962 2°31.734 22.7463 0.258349 1.55896 1.158523
2009-06-18 10:59:24 51°24.944 2°31.726 22.7432 0.258349 1.558871 1.158523
2009-06-18 11:00:24 51°24.913 2°31.707 22.7538 0.258349 1.558812 1.158523
2009-06-18 11:01:24 51°24.85 2°31.667 22.7397 0.258349 1.558782 1.158523
2009-06-18 11:02:24 51°24.807 2°31.624 22.7447 0.258246 1.558007 1.123699
2009-06-18 11:03:24 51°24.778 2°31.595 22.7226 0.258246 1.557918 1.123699
2009-06-18 11:04:24 51°24.776 2°31.601 22.7465 0.258246 1.55777 1.123699
2009-06-18 11:05:24 51°24.772 2°31.609 22.7413 0.258143 1.557055 1.088875
2009-06-18 11:06:24 51°24.756 2°31.591 22.742 0.258143 1.557025 1.088875
2009-06-18 11:07:24 51°24.751 2°31.547 22.7459 0.258143 1.556966 1.088875
2009-06-18 11:08:24 51°24.755 2°31.526 22.7449 0.258143 1.556847 1.088875
2009-06-18 11:09:24 51°24.765 2°31.516 22.7263 0.258143 1.556787 1.088875
2009-06-18 11:10:24 51°24.777 2°31.512 22.748 0.258143 1.556698 1.088875
2009-06-18 11:11:24 51°24.79 2°31.513 22.7283 0.258143 1.556639 1.054051
2009-06-18 11:12:24 51°24.804 2°31.518 22.7468 0.258143 1.55658 1.054051
2009-06-18 11:13:24 51°24.818 2°31.525 22.7453 0.258143 1.556521 1.054051
2009-06-18 11:14:24 51°24.851 2°31.516 22.7425 0.258143 1.556461 1.054051
2009-06-18 11:15:24 51°24.882 2°31.509 22.7419 0.258246 1.557057 1.054051
2009-06-18 11:16:24 51°24.908 2°31.511 22.732 0.258246 1.556998 1.019227
2009-06-18 11:17:24 51°24.932 2°31.522 22.7322 0.258246 1.556968 1.019227
2009-06-18 11:18:24 51°24.954 2°31.536 22.7369 0.258349 1.557624 1.019227
2009-06-18 11:19:24 51°24.973 2°31.548 22.7326 0.258349 1.557564 1.019227
2009-06-18 11:20:24 51°24.989 2°31.56 22.7343 0.258452 1.55819 1.019227
2009-06-18 11:21:24 51°25.002 2°31.571 22.7231 0.258452 1.55816 1.019227
2009-06-18 11:22:24 51°25.014 2°31.584 22.7388 0.258452 1.558131 0.984403
2009-06-18 11:23:24 51°25.026 2°31.599 22.726 0.258555 1.558786 0.984403
2009-06-18 11:24:25 51°25.036 2°31.615 22.7341 0.258555 1.558756 0.984403
2009-06-18 11:25:24 51°25.045 2°31.632 22.7317 0.258658 1.559352 0.984403
2009-06-18 11:26:24 51°25.055 2°31.65 22.7269 0.258658 1.559352 0.949579
2009-06-18 11:27:24 51°25.062 2°31.668 22.7363 0.258658 1.559322 0.949579
2009-06-18 11:28:24 51°25.07 2°31.685 22.7274 0.25876 1.559948 0.949579
2009-06-18 11:29:24 51°25.076 2°31.702 22.727 0.25876 1.559948 0.949579
2009-06-18 11:30:24 51°25.083 2°31.719 22.7292 0.25876 1.559918 0.949579
2009-06-18 11:31:24 51°25.088 2°31.736 22.7324 0.258863 1.560544 0.949579
2009-06-18 11:32:24 51°25.095 2°31.754 22.7313 0.258863 1.560544 0.914755
2009-06-18 11:33:25 51°25.1 2°31.77 22.7222 0.258863 1.560514 0.914755
2009-06-18 11:34:24 51°25.103 2°31.785 22.7267 0.258863 1.560484 0.914755
2009-06-18 11:35:25 51°25.105 2°31.8 22.7259 0.258966 1.56111 0.914755
2009-06-18 11:36:24 51°25.115 2°31.816 22.7249 0.258966 1.56108 0.914755
2009-06-18 11:37:25 51°25.145 2°31.883 22.7205 0.258966 1.56111 0.914755
2009-06-18 11:38:25 51°25.129 2°31.955 22.727 0.259069 1.561765 0.879931
2009-06-18 11:39:24 51°25.11 2°31.991 22.7274 0.259069 1.561735 0.879931
2009-06-18 11:40:24 51°25.098 2°32.02 22.7268 0.259069 1.561706 0.879931
2009-06-18 11:41:24 51°25.09 2°32.044 22.7211 0.259069 1.561676 0.879931
2009-06-18 11:42:24 51°25.086 2°32.063 22.7223 0.259172 1.562301 0.845107
2009-06-18 11:43:24 51°25.083 2°32.081 22.7122 0.259172 1.562301 0.845107
2009-06-18 11:44:24 51°25.083 2°32.097 22.7256 0.259172 1.562272 0.845107
2009-06-18 11:45:24 51°25.083 2°32.11 22.7165 0.259275 1.562927 0.845107
2009-06-18 11:46:24 51°25.084 2°32.124 22.7169 0.259275 1.562927 0.845107
2009-06-18 11:47:24 51°25.085 2°32.137 22.7234 0.259275 1.562927 0.845107
2009-06-18 11:48:24 51°25.087 2°32.15 22.7214 0.259275 1.562927 0.810283
2009-06-18 11:49:25 51°25.088 2°32.162 22.7144 0.259378 1.563582 0.810283
2009-06-18 11:50:24 51°25.089 2°32.174 22.716 0.259378 1.563582 0.775459
2009-06-18 11:51:25 51°25.091 2°32.186 22.7094 0.259378 1.563612 0.810283
2009-06-18 11:52:24 51°25.092 2°32.198 22.7234 0.259378 1.563612 0.775459
2009-06-18 11:53:24 51°25.094 2°32.21 22.7212 0.259481 1.564267 0.775459
2009-06-18 11:54:24 51°25.096 2°32.222 22.7115 0.259481 1.564267 0.775459
2009-06-18 11:55:24 51°25.097 2°32.233 22.7161 0.259584 1.564923 0.775459
2009-06-18 11:56:24 51°25.097 2°32.244 22.7074 0.259584 1.564952 0.775459
2009-06-18 11:57:24 51°25.088 2°32.258 22.7104 0.259584 1.564952 0.740634
2009-06-18 11:58:24 51°25.064 2°32.272 22.7128 0.259584 1.564982 0.740634
2009-06-18 11:59:24 51°25.038 2°32.281 22.7098 0.259687 1.565638 0.740634
2009-06-18 12:00:24 51°25.012 2°32.285 22.7093 0.259687 1.565667 0.740634
2009-06-18 12:01:24 51°24.985 2°32.288 22.7102 0.259687 1.565667 0.70581
2009-06-18 12:02:25 51°24.963 2°32.291 22.7141 0.259687 1.565697 0.740634
2009-06-18 12:03:24 51°24.944 2°32.292 22.7079 0.259687 1.565697 0.70581
2009-06-18 12:04:24 51°24.927 2°32.294 22.7109 0.259687 1.565727 0.70581
2009-06-18 12:05:25 51°24.91 2°32.297 22.7132 0.259687 1.565727 0.70581
2009-06-18 12:06:25 51°24.895 2°32.3 22.72 0.259687 1.565757 0.670986
2009-06-18 12:07:25 51°24.88 2°32.302 22.708 0.259687 1.565757 0.670986
2009-06-18 12:08:24 51°24.867 2°32.302 22.703 0.259687 1.565757 0.670986
2009-06-18 12:09:24 51°24.854 2°32.301 22.7112 0.259584 1.565101 0.670986
2009-06-18 12:10:24 51°24.802 2°32.3 22.7265 0.259687 1.565787 0.636162
2009-06-18 12:11:24 51°24.731 2°32.43 22.6832 0.259584 1.565221 0.636162
2009-06-18 12:12:24 51°24.646 2°32.625 22.7076 0.259584 1.565131 0.636162
2009-06-18 12:13:24 51°24.539 2°32.861 22.7137 0.259584 1.565131 0.636162
2009-06-18 12:14:24 51°24.424 2°33.111 22.6999 0.259584 1.565191 0.636162
2009-06-18 12:15:24 51°24.309 2°33.366 22.6957 0.259584 1.565221 0.601338
2009-06-18 12:16:24 51°24.192 2°33.622 22.7038 0.259584 1.565221 0.636162
2009-06-18 12:17:24 51°24.075 2°33.878 22.697 0.259481 1.564595 0.601338
2009-06-18 12:18:24 51°23.958 2°34.131 22.7093 0.259481 1.564595 0.601338
2009-06-18 12:19:24 51°23.845 2°34.374 22.7085 0.259481 1.564565 0.601338
2009-06-18 12:20:24 51°23.732 2°34.615 22.702 0.259378 1.56388 0.601338
2009-06-18 12:21:24 51°23.617 2°34.853 22.7005 0.259378 1.56388 0.601338
2009-06-18 12:22:24 51°23.5 2°35.091 22.7123 0.259378 1.56382 0.566514
2009-06-18 12:23:24 51°23.34 2°35.251 22.7115 0.259275 1.563195 0.566514
2009-06-18 12:24:24 51°23.157 2°35.363 22.7122 0.259275 1.563135 0.566514
2009-06-18 12:25:24 51°22.975 2°35.478 22.7046 0.259275 1.563076 0.566514
2009-06-18 12:26:24 51°22.794 2°35.597 22.7186 0.259172 1.562391 0.566514
2009-06-18 12:27:24 51°22.616 2°35.722 22.7009 0.259172 1.562331 0.566514
2009-06-18 12:28:24 51°22.441 2°35.851 22.7161 0.259172 1.562272 0.566514
2009-06-18 12:29:24 51°22.265 2°35.976 22.7075 0.259069 1.561527 0.53169
2009-06-18 12:30:24 51°22.087 2°36.1 22.7037 0.259069 1.561468 0.53169
2009-06-18 12:31:24 51°21.907 2°36.224 22.7234 0.259069 1.561408 0.53169
2009-06-18 12:32:24 51°21.729 2°36.357 22.7275 0.258966 1.560664 0.53169
2009-06-18 12:33:24 51°21.564 2°36.524 22.7228 0.258966 1.560605 0.53169
2009-06-18 12:34:24 51°21.429 2°36.742 22.6998 0.258966 1.560575 0.53169
2009-06-18 12:35:24 51°21.308 2°36.972 22.6951 0.258966 1.560516 0.53169
2009-06-18 12:36:24 51°21.188 2°37.199 22.7266 0.258863 1.559771 0.53169
2009-06-18 12:37:24 51°21.064 2°37.422 22.7073 0.258966 1.560397 0.53169
2009-06-18 12:38:24 51°20.94 2°37.648 22.7292 0.258863 1.559682 0.496866
2009-06-18 12:39:24 51°20.814 2°37.87 22.7223 0.258863 1.559623 0.496866
2009-06-18 12:40:24 51°20.685 2°38.096 22.7283 0.258863 1.559534 0.496866
2009-06-18 12:41:24 51°20.555 2°38.322 22.7318 0.258863 1.559475 0.496866
2009-06-18 12:42:24 51°20.424 2°38.548 22.7098 0.258863 1.559415 0.496866
2009-06-18 12:43:24 51°20.298 2°38.776 22.7418 0.258863 1.559326 0.496866
2009-06-18 12:44:24 51°20.172 2°39.002 22.7365 0.258863 1.559237 0.496866
2009-06-18 12:45:24 51°20.045 2°39.227 22.7451 0.258863 1.559208 0.496866
2009-06-18 12:46:24 51°19.918 2°39.448 22.739 0.258863 1.559148 0.496866
2009-06-18 12:47:24 51°19.789 2°39.667 22.7157 0.258966 1.559773 0.496866
2009-06-18 12:48:24 51°19.654 2°39.886 22.7189 0.258966 1.559684 0.496866
2009-06-18 12:49:24 51°19.524 2°40.108 22.7378 0.258966 1.559655 0.496866
2009-06-18 12:50:24 51°19.393 2°40.329 22.7491 0.258966 1.559595 0.496866
2009-06-18 12:51:24 51°19.262 2°40.54 22.7528 0.258966 1.559536 0.496866
2009-06-18 12:52:24 51°19.131 2°40.754 22.7601 0.258966 1.559477 0.496866
2009-06-18 12:53:24 51°18.999 2°40.973 22.7433 0.258966 1.559417 0.496866
2009-06-18 12:54:24 51°18.869 2°41.193 22.7508 0.259069 1.560042 0.496866
2009-06-18 12:55:24 51°18.741 2°41.414 22.7515 0.259069 1.559953 0.462042
2009-06-18 12:56:24 51°18.615 2°41.634 22.7346 0.259069 1.559924 0.496866
2009-06-18 12:57:24 51°18.485 2°41.85 22.7636 0.259069 1.559835 0.496866
2009-06-18 12:58:24 51°18.357 2°42.067 22.7346 0.259069 1.559805 0.496866
2009-06-18 12:59:24 51°18.226 2°42.284 22.7588 0.259172 1.56037 0.496866
2009-06-18 13:00:24 51°18.093 2°42.504 22.7718 0.259069 1.559686 0.496866
2009-06-18 13:01:24 51°17.961 2°42.725 22.7851 0.259069 1.559627 0.496866
2009-06-18 13:02:24 51°17.841 2°42.958 22.7711 0.259172 1.560222 0.496866
2009-06-18 13:03:24 51°17.727 2°43.19 22.7649 0.259172 1.560192 0.496866
2009-06-18 13:04:24 51°17.615 2°43.416 22.7926 0.259172 1.560133 0.496866
2009-06-18 13:05:24 51°17.495 2°43.645 22.7816 0.259172 1.560074 0.496866
2009-06-18 13:06:24 51°17.373 2°43.875 22.8001 0.259172 1.560014 0.496866
2009-06-18 13:07:24 51°17.254 2°44.112 22.7878 0.259172 1.559985 0.496866
2009-06-18 13:08:24 51°17.133 2°44.349 22.7869 0.259275 1.56058 0.496866
2009-06-18 13:09:24 51°17.018 2°44.589 22.8089 0.259275 1.56052 0.496866
2009-06-18 13:10:24 51°16.896 2°44.825 22.8019 0.259275 1.560461 0.496866
2009-06-18 13:11:24 51°16.775 2°45.062 22.8047 0.259275 1.560431 0.496866
2009-06-18 13:12:24 51°16.661 2°45.308 22.8138 0.259275 1.560372 0.496866
2009-06-18 13:13:24 51°16.55 2°45.559 22.806 0.259378 1.560967 0.496866
2009-06-18 13:14:24 51°16.442 2°45.809 22.8219 0.259275 1.560283 0.496866
2009-06-18 13:15:24 51°16.335 2°46.06 22.8113 0.259378 1.560878 0.496866
2009-06-18 13:16:24 51°16.244 2°46.324 22.821 0.259378 1.560819 0.496866
2009-06-18 13:17:24 51°16.176 2°46.604 22.8273 0.259378 1.560759 0.496866
2009-06-18 13:18:24 51°16.111 2°46.887 22.8301 0.259378 1.5607 0.496866
2009-06-18 13:19:24 51°16.044 2°47.169 22.824 0.259378 1.560641 0.496866
2009-06-18 13:20:24 51°15.978 2°47.451 22.8445 0.259481 1.561235 0.496866
2009-06-18 13:21:24 51°15.912 2°47.73 22.8369 0.259481 1.561176 0.496866
2009-06-18 13:22:24 51°15.841 2°48.004 22.8468 0.259481 1.561176 0.496866
2009-06-18 13:23:24 51°15.779 2°48.281 22.8352 0.259481 1.561087 0.496866
2009-06-18 13:24:24 51°15.723 2°48.56 22.8574 0.259378 1.560374 0.53169
2009-06-18 13:25:24 51°15.666 2°48.836 22.8708 0.259481 1.560969 0.496866
2009-06-18 13:26:24 51°15.61 2°49.112 22.8546 0.259481 1.56088 0.496866
2009-06-18 13:27:24 51°15.553 2°49.391 22.8734 0.259481 1.56082 0.496866
2009-06-18 13:28:24 51°15.505 2°49.67 22.8765 0.259481 1.560791 0.496866
2009-06-18 13:29:24 51°15.46 2°49.952 22.8674 0.259481 1.560702 0.53169
2009-06-18 13:30:24 51°15.42 2°50.236 22.9017 0.259481 1.560613 0.496866
2009-06-18 13:31:24 51°15.382 2°50.522 22.887 0.259481 1.560554 0.496866
2009-06-18 13:32:24 51°15.351 2°50.808 22.8824 0.259481 1.560465 0.496866
2009-06-18 13:33:24 51°15.327 2°51.094 22.8986 0.259378 1.559722 0.496866
2009-06-18 13:34:24 51°15.298 2°51.381 22.8773 0.259378 1.559604 0.496866
2009-06-18 13:35:24 51°15.259 2°51.663 22.9128 0.259275 1.558773 0.496866
2009-06-18 13:36:24 51°15.192 2°51.934 22.8958 0.259275 1.558595 0.496866
2009-06-18 13:37:24 51°15.112 2°52.198 22.9452 0.259172 1.557735 0.496866
2009-06-18 13:38:24 51°15.032 2°52.463 22.9163 0.259069 1.556816 0.496866
2009-06-18 13:39:24 51°14.955 2°52.725 22.9174 0.258966 1.555867 0.496866
2009-06-18 13:40:24 51°14.885 2°52.989 22.9237 0.258863 1.55492 0.496866
2009-06-18 13:41:24 51°14.823 2°53.257 22.9237 0.258657 1.55326 0.496866
2009-06-18 13:42:24 51°14.758 2°53.522 22.9406 0.258554 1.552137 0.496866
2009-06-18 13:43:24 51°14.692 2°53.787 22.9359 0.258554 1.551843 0.496866
2009-06-18 13:44:24 51°14.624 2°54.053 22.9566 0.258451 1.550868 0.496866
2009-06-18 13:45:24 51°14.556 2°54.319 22.943 0.258451 1.550603 0.496866
2009-06-18 13:46:24 51°14.483 2°54.58 22.9601 0.258451 1.55031 0.53169
2009-06-18 13:47:24 51°14.409 2°54.837 22.9445 0.258451 1.550016 0.496866
2009-06-18 13:48:24 51°14.333 2°55.099 22.99 0.258451 1.549752 0.496866
2009-06-18 13:49:24 51°14.228 2°55.307 22.97 0.258554 1.55017 0.496866
2009-06-18 13:50:24 51°14.102 2°55.426 22.9922 0.258554 1.549906 0.53169
2009-06-18 13:51:24 51°13.976 2°55.519 22.9879 0.258554 1.549554 0.53169
2009-06-18 13:52:24 51°13.875 2°55.592 23.0032 0.258554 1.549173 0.53169
2009-06-18 13:53:24 51°13.781 2°55.68 23.0043 0.258554 1.548851 0.53169
2009-06-18 13:54:24 51°13.718 2°55.778 23.0106 0.258554 1.548471 0.53169